sensor_id;sensor_type;location;lat;lon;timestamp;P1;durP1;ratioP1;P2;durP2;ratioP2
17414;SDS011;8825;48.086;16.426;2023-12-04T00:02:03;164.13;;;155.95;;
17414;SDS011;8825;48.086;16.426;2023-12-04T00:04:30;172.82;;;164.22;;
17414;SDS011;8825;48.086;16.426;2023-12-04T00:06:58;178.45;;;169.72;;
17414;SDS011;8825;48.086;16.426;2023-12-04T00:09:25;178.53;;;168.70;;
17414;SDS011;8825;48.086;16.426;2023-12-04T00:11:53;199.87;;;189.45;;
17414;SDS011;8825;48.086;16.426;2023-12-04T00:14:21;198.82;;;188.80;;
17414;SDS011;8825;48.086;16.426;2023-12-04T00:16:49;221.20;;;210.50;;
17414;SDS011;8825;48.086;16.426;2023-12-04T00:19:16;268.65;;;253.90;;
17414;SDS011;8825;48.086;16.426;2023-12-04T00:21:44;253.95;;;240.72;;
17414;SDS011;8825;48.086;16.426;2023-12-04T00:24:11;241.65;;;230.00;;
17414;SDS011;8825;48.086;16.426;2023-12-04T00:26:39;231.32;;;220.22;;
17414;SDS011;8825;48.086;16.426;2023-12-04T00:29:07;370.57;;;351.32;;
17414;SDS011;8825;48.086;16.426;2023-12-04T00:31:34;341.20;;;323.65;;
17414;SDS011;8825;48.086;16.426;2023-12-04T00:34:02;328.18;;;311.10;;
17414;SDS011;8825;48.086;16.426;2023-12-04T00:36:29;301.30;;;286.25;;
17414;SDS011;8825;48.086;16.426;2023-12-04T00:38:57;302.25;;;286.37;;
17414;SDS011;8825;48.086;16.426;2023-12-04T00:41:24;266.85;;;252.47;;
17414;SDS011;8825;48.086;16.426;2023-12-04T00:43:52;286.75;;;272.30;;
17414;SDS011;8825;48.086;16.426;2023-12-04T00:46:19;277.52;;;262.80;;
17414;SDS011;8825;48.086;16.426;2023-12-04T00:48:47;222.07;;;210.85;;
17414;SDS011;8825;48.086;16.426;2023-12-04T00:51:14;216.33;;;205.00;;
17414;SDS011;8825;48.086;16.426;2023-12-04T00:53:42;198.05;;;187.45;;
17414;SDS011;8825;48.086;16.426;2023-12-04T00:56:09;244.30;;;232.77;;
17414;SDS011;8825;48.086;16.426;2023-12-04T00:58:37;333.17;;;317.05;;
17414;SDS011;8825;48.086;16.426;2023-12-04T01:01:05;274.52;;;261.62;;
17414;SDS011;8825;48.086;16.426;2023-12-04T01:03:33;376.40;;;357.48;;
17414;SDS011;8825;48.086;16.426;2023-12-04T01:06:00;223.75;;;212.75;;
17414;SDS011;8825;48.086;16.426;2023-12-04T01:08:28;243.02;;;231.20;;
17414;SDS011;8825;48.086;16.426;2023-12-04T01:10:55;291.52;;;277.35;;
17414;SDS011;8825;48.086;16.426;2023-12-04T01:13:23;299.17;;;284.95;;
17414;SDS011;8825;48.086;16.426;2023-12-04T01:15:50;326.58;;;309.67;;
17414;SDS011;8825;48.086;16.426;2023-12-04T01:18:18;268.97;;;255.65;;
17414;SDS011;8825;48.086;16.426;2023-12-04T01:20:45;237.32;;;225.13;;
17414;SDS011;8825;48.086;16.426;2023-12-04T01:23:13;231.28;;;220.22;;
17414;SDS011;8825;48.086;16.426;2023-12-04T01:25:40;247.27;;;234.85;;
17414;SDS011;8825;48.086;16.426;2023-12-04T01:28:08;252.97;;;239.68;;
17414;SDS011;8825;48.086;16.426;2023-12-04T01:30:35;255.75;;;242.95;;
17414;SDS011;8825;48.086;16.426;2023-12-04T01:33:03;258.15;;;245.60;;
17414;SDS011;8825;48.086;16.426;2023-12-04T01:35:30;243.35;;;231.10;;
17414;SDS011;8825;48.086;16.426;2023-12-04T01:37:58;274.95;;;261.50;;
17414;SDS011;8825;48.086;16.426;2023-12-04T01:40:26;260.77;;;247.40;;
17414;SDS011;8825;48.086;16.426;2023-12-04T01:42:54;273.43;;;259.80;;
17414;SDS011;8825;48.086;16.426;2023-12-04T01:45:21;267.35;;;254.32;;
17414;SDS011;8825;48.086;16.426;2023-12-04T01:47:49;213.57;;;203.37;;
17414;SDS011;8825;48.086;16.426;2023-12-04T01:50:16;191.37;;;182.37;;
17414;SDS011;8825;48.086;16.426;2023-12-04T01:52:44;220.10;;;209.52;;
17414;SDS011;8825;48.086;16.426;2023-12-04T01:55:13;187.77;;;178.85;;
17414;SDS011;8825;48.086;16.426;2023-12-04T01:57:42;213.85;;;203.52;;
17414;SDS011;8825;48.086;16.426;2023-12-04T02:00:10;246.45;;;235.00;;
17414;SDS011;8825;48.086;16.426;2023-12-04T02:02:40;245.33;;;233.20;;
17414;SDS011;8825;48.086;16.426;2023-12-04T02:05:11;247.85;;;235.23;;
17414;SDS011;8825;48.086;16.426;2023-12-04T02:07:40;214.05;;;203.73;;
17414;SDS011;8825;48.086;16.426;2023-12-04T02:10:09;209.43;;;199.15;;
17414;SDS011;8825;48.086;16.426;2023-12-04T02:12:37;173.57;;;165.20;;
17414;SDS011;8825;48.086;16.426;2023-12-04T02:15:04;213.05;;;202.87;;
17414;SDS011;8825;48.086;16.426;2023-12-04T02:17:32;224.50;;;213.70;;
17414;SDS011;8825;48.086;16.426;2023-12-04T02:20:01;237.53;;;225.93;;
17414;SDS011;8825;48.086;16.426;2023-12-04T02:22:30;197.93;;;188.12;;
17414;SDS011;8825;48.086;16.426;2023-12-04T02:24:58;183.10;;;173.45;;
17414;SDS011;8825;48.086;16.426;2023-12-04T02:27:30;228.98;;;217.43;;
17414;SDS011;8825;48.086;16.426;2023-12-04T02:30:02;230.60;;;218.88;;
17414;SDS011;8825;48.086;16.426;2023-12-04T02:32:33;192.13;;;182.22;;
17414;SDS011;8825;48.086;16.426;2023-12-04T02:35:03;202.70;;;192.77;;
17414;SDS011;8825;48.086;16.426;2023-12-04T02:37:33;220.97;;;209.95;;
17414;SDS011;8825;48.086;16.426;2023-12-04T02:40:01;267.32;;;252.95;;
17414;SDS011;8825;48.086;16.426;2023-12-04T02:42:30;238.87;;;226.82;;
17414;SDS011;8825;48.086;16.426;2023-12-04T02:44:57;286.00;;;270.85;;
17414;SDS011;8825;48.086;16.426;2023-12-04T02:47:25;302.48;;;286.95;;
17414;SDS011;8825;48.086;16.426;2023-12-04T02:49:52;258.80;;;245.70;;
17414;SDS011;8825;48.086;16.426;2023-12-04T02:52:20;260.30;;;247.27;;
17414;SDS011;8825;48.086;16.426;2023-12-04T02:54:47;270.85;;;257.02;;
17414;SDS011;8825;48.086;16.426;2023-12-04T02:57:15;233.25;;;221.43;;
17414;SDS011;8825;48.086;16.426;2023-12-04T02:59:42;221.70;;;210.30;;
17414;SDS011;8825;48.086;16.426;2023-12-04T03:02:10;283.87;;;269.90;;
17414;SDS011;8825;48.086;16.426;2023-12-04T03:04:37;250.90;;;238.72;;
17414;SDS011;8825;48.086;16.426;2023-12-04T03:07:05;270.25;;;256.77;;
17414;SDS011;8825;48.086;16.426;2023-12-04T03:09:32;212.78;;;202.00;;
17414;SDS011;8825;48.086;16.426;2023-12-04T03:12:00;277.05;;;263.70;;
17414;SDS011;8825;48.086;16.426;2023-12-04T03:14:27;225.95;;;214.88;;
17414;SDS011;8825;48.086;16.426;2023-12-04T03:16:55;224.07;;;213.07;;
17414;SDS011;8825;48.086;16.426;2023-12-04T03:19:22;290.80;;;277.15;;
17414;SDS011;8825;48.086;16.426;2023-12-04T03:21:50;292.90;;;278.55;;
17414;SDS011;8825;48.086;16.426;2023-12-04T03:24:17;247.15;;;235.57;;
17414;SDS011;8825;48.086;16.426;2023-12-04T03:26:45;355.32;;;337.88;;
17414;SDS011;8825;48.086;16.426;2023-12-04T03:29:12;336.82;;;320.63;;
17414;SDS011;8825;48.086;16.426;2023-12-04T03:31:40;317.75;;;302.43;;
17414;SDS011;8825;48.086;16.426;2023-12-04T03:34:07;279.55;;;265.48;;
17414;SDS011;8825;48.086;16.426;2023-12-04T03:36:35;329.87;;;313.05;;
17414;SDS011;8825;48.086;16.426;2023-12-04T03:39:02;306.82;;;291.25;;
17414;SDS011;8825;48.086;16.426;2023-12-04T03:41:30;277.73;;;263.32;;
17414;SDS011;8825;48.086;16.426;2023-12-04T03:43:57;318.00;;;302.02;;
17414;SDS011;8825;48.086;16.426;2023-12-04T03:46:25;358.23;;;341.23;;
17414;SDS011;8825;48.086;16.426;2023-12-04T03:48:52;314.88;;;299.83;;
17414;SDS011;8825;48.086;16.426;2023-12-04T03:51:20;387.48;;;367.70;;
17414;SDS011;8825;48.086;16.426;2023-12-04T03:53:48;364.48;;;345.73;;
17414;SDS011;8825;48.086;16.426;2023-12-04T03:56:15;448.28;;;425.12;;
17414;SDS011;8825;48.086;16.426;2023-12-04T03:58:43;415.73;;;393.45;;
17414;SDS011;8825;48.086;16.426;2023-12-04T04:01:10;399.32;;;378.00;;
17414;SDS011;8825;48.086;16.426;2023-12-04T04:03:38;378.55;;;359.10;;
17414;SDS011;8825;48.086;16.426;2023-12-04T04:06:05;470.85;;;445.18;;
17414;SDS011;8825;48.086;16.426;2023-12-04T04:08:33;461.38;;;438.25;;
17414;SDS011;8825;48.086;16.426;2023-12-04T04:11:01;358.10;;;340.82;;
17414;SDS011;8825;48.086;16.426;2023-12-04T04:13:28;339.75;;;323.00;;
17414;SDS011;8825;48.086;16.426;2023-12-04T04:15:56;363.92;;;346.25;;
17414;SDS011;8825;48.086;16.426;2023-12-04T04:18:23;390.15;;;368.95;;
17414;SDS011;8825;48.086;16.426;2023-12-04T04:20:51;384.57;;;364.98;;
17414;SDS011;8825;48.086;16.426;2023-12-04T04:23:18;398.32;;;377.38;;
17414;SDS011;8825;48.086;16.426;2023-12-04T04:25:46;375.93;;;356.10;;
17414;SDS011;8825;48.086;16.426;2023-12-04T04:28:13;391.38;;;370.48;;
17414;SDS011;8825;48.086;16.426;2023-12-04T04:30:41;328.27;;;311.80;;
17414;SDS011;8825;48.086;16.426;2023-12-04T04:33:08;376.52;;;356.75;;
17414;SDS011;8825;48.086;16.426;2023-12-04T04:35:37;357.92;;;338.75;;
17414;SDS011;8825;48.086;16.426;2023-12-04T04:38:04;318.17;;;302.45;;
17414;SDS011;8825;48.086;16.426;2023-12-04T04:40:32;339.30;;;321.98;;
17414;SDS011;8825;48.086;16.426;2023-12-04T04:42:59;337.75;;;320.52;;
17414;SDS011;8825;48.086;16.426;2023-12-04T04:45:27;366.33;;;347.42;;
17414;SDS011;8825;48.086;16.426;2023-12-04T04:47:54;301.45;;;285.68;;
17414;SDS011;8825;48.086;16.426;2023-12-04T04:50:22;352.05;;;333.85;;
17414;SDS011;8825;48.086;16.426;2023-12-04T04:52:49;358.65;;;340.18;;
17414;SDS011;8825;48.086;16.426;2023-12-04T04:55:17;364.30;;;345.23;;
17414;SDS011;8825;48.086;16.426;2023-12-04T04:57:44;309.62;;;294.23;;
17414;SDS011;8825;48.086;16.426;2023-12-04T05:00:12;372.55;;;353.83;;
17414;SDS011;8825;48.086;16.426;2023-12-04T05:02:41;284.20;;;270.42;;
17414;SDS011;8825;48.086;16.426;2023-12-04T05:05:11;364.48;;;345.73;;
17414;SDS011;8825;48.086;16.426;2023-12-04T05:07:38;322.00;;;305.05;;
17414;SDS011;8825;48.086;16.426;2023-12-04T05:10:06;256.10;;;243.57;;
17414;SDS011;8825;48.086;16.426;2023-12-04T05:12:33;270.95;;;257.07;;
17414;SDS011;8825;48.086;16.426;2023-12-04T05:15:01;309.60;;;293.50;;
17414;SDS011;8825;48.086;16.426;2023-12-04T05:17:28;372.48;;;353.18;;
17414;SDS011;8825;48.086;16.426;2023-12-04T05:19:56;337.15;;;320.15;;
17414;SDS011;8825;48.086;16.426;2023-12-04T05:22:24;332.27;;;314.02;;
17414;SDS011;8825;48.086;16.426;2023-12-04T05:24:52;386.98;;;365.32;;
17414;SDS011;8825;48.086;16.426;2023-12-04T05:27:19;418.57;;;394.00;;
17414;SDS011;8825;48.086;16.426;2023-12-04T05:29:47;338.65;;;319.15;;
17414;SDS011;8825;48.086;16.426;2023-12-04T05:32:14;330.32;;;310.95;;
17414;SDS011;8825;48.086;16.426;2023-12-04T05:34:42;340.43;;;320.35;;
17414;SDS011;8825;48.086;16.426;2023-12-04T05:37:09;344.60;;;325.32;;
17414;SDS011;8825;48.086;16.426;2023-12-04T05:39:37;399.60;;;377.87;;
17414;SDS011;8825;48.086;16.426;2023-12-04T05:42:04;368.77;;;349.52;;
17414;SDS011;8825;48.086;16.426;2023-12-04T05:44:33;373.38;;;354.60;;
17414;SDS011;8825;48.086;16.426;2023-12-04T05:47:00;376.62;;;357.02;;
17414;SDS011;8825;48.086;16.426;2023-12-04T05:49:28;368.60;;;349.52;;
17414;SDS011;8825;48.086;16.426;2023-12-04T05:51:56;313.05;;;297.33;;
17414;SDS011;8825;48.086;16.426;2023-12-04T05:54:24;296.77;;;281.95;;
17414;SDS011;8825;48.086;16.426;2023-12-04T05:56:51;265.27;;;252.38;;
17414;SDS011;8825;48.086;16.426;2023-12-04T05:59:19;273.18;;;260.08;;
17414;SDS011;8825;48.086;16.426;2023-12-04T06:01:46;330.67;;;312.98;;
17414;SDS011;8825;48.086;16.426;2023-12-04T06:04:14;342.60;;;323.27;;
17414;SDS011;8825;48.086;16.426;2023-12-04T06:06:41;380.50;;;361.10;;
17414;SDS011;8825;48.086;16.426;2023-12-04T06:09:09;392.77;;;372.02;;
17414;SDS011;8825;48.086;16.426;2023-12-04T06:11:37;413.25;;;392.15;;
17414;SDS011;8825;48.086;16.426;2023-12-04T06:14:04;282.40;;;266.85;;
17414;SDS011;8825;48.086;16.426;2023-12-04T06:16:32;353.40;;;335.05;;
17414;SDS011;8825;48.086;16.426;2023-12-04T06:19:00;319.73;;;302.25;;
17414;SDS011;8825;48.086;16.426;2023-12-04T06:21:28;304.50;;;288.37;;
17414;SDS011;8825;48.086;16.426;2023-12-04T06:23:55;316.27;;;299.15;;
17414;SDS011;8825;48.086;16.426;2023-12-04T06:26:23;361.15;;;342.32;;
17414;SDS011;8825;48.086;16.426;2023-12-04T06:28:51;357.00;;;338.85;;
17414;SDS011;8825;48.086;16.426;2023-12-04T06:31:19;340.27;;;321.98;;
17414;SDS011;8825;48.086;16.426;2023-12-04T06:33:47;324.82;;;308.98;;
17414;SDS011;8825;48.086;16.426;2023-12-04T06:36:15;275.65;;;261.77;;
17414;SDS011;8825;48.086;16.426;2023-12-04T06:38:44;263.02;;;250.05;;
17414;SDS011;8825;48.086;16.426;2023-12-04T06:41:14;312.77;;;296.52;;
17414;SDS011;8825;48.086;16.426;2023-12-04T06:43:43;324.98;;;308.15;;
17414;SDS011;8825;48.086;16.426;2023-12-04T06:46:11;301.42;;;286.18;;
17414;SDS011;8825;48.086;16.426;2023-12-04T06:48:42;327.65;;;311.23;;
17414;SDS011;8825;48.086;16.426;2023-12-04T06:51:10;335.98;;;318.93;;
17414;SDS011;8825;48.086;16.426;2023-12-04T06:53:38;369.98;;;350.85;;
17414;SDS011;8825;48.086;16.426;2023-12-04T06:56:05;294.27;;;279.32;;
17414;SDS011;8825;48.086;16.426;2023-12-04T06:58:34;317.10;;;301.45;;
17414;SDS011;8825;48.086;16.426;2023-12-04T07:01:01;356.35;;;337.00;;
17414;SDS011;8825;48.086;16.426;2023-12-04T07:03:29;306.95;;;290.92;;
17414;SDS011;8825;48.086;16.426;2023-12-04T07:05:56;332.25;;;315.00;;
17414;SDS011;8825;48.086;16.426;2023-12-04T07:08:24;301.37;;;285.75;;
17414;SDS011;8825;48.086;16.426;2023-12-04T07:10:52;314.10;;;298.00;;
17414;SDS011;8825;48.086;16.426;2023-12-04T07:13:19;294.62;;;279.77;;
17414;SDS011;8825;48.086;16.426;2023-12-04T07:15:47;403.77;;;381.30;;
17414;SDS011;8825;48.086;16.426;2023-12-04T07:18:14;426.65;;;403.12;;
17414;SDS011;8825;48.086;16.426;2023-12-04T07:20:42;375.98;;;356.87;;
17414;SDS011;8825;48.086;16.426;2023-12-04T07:23:09;367.62;;;348.75;;
17414;SDS011;8825;48.086;16.426;2023-12-04T07:25:37;356.38;;;338.90;;
17414;SDS011;8825;48.086;16.426;2023-12-04T07:28:04;337.77;;;321.57;;
17414;SDS011;8825;48.086;16.426;2023-12-04T07:30:32;269.20;;;255.00;;
17414;SDS011;8825;48.086;16.426;2023-12-04T07:32:59;283.32;;;268.37;;
17414;SDS011;8825;48.086;16.426;2023-12-04T07:35:27;269.40;;;255.32;;
17414;SDS011;8825;48.086;16.426;2023-12-04T07:37:54;299.37;;;281.90;;
17414;SDS011;8825;48.086;16.426;2023-12-04T07:40:22;316.38;;;300.77;;
17414;SDS011;8825;48.086;16.426;2023-12-04T07:42:50;318.90;;;302.82;;
17414;SDS011;8825;48.086;16.426;2023-12-04T07:45:18;263.07;;;249.37;;
17414;SDS011;8825;48.086;16.426;2023-12-04T07:47:46;311.92;;;296.07;;
17414;SDS011;8825;48.086;16.426;2023-12-04T07:50:14;288.48;;;274.25;;
17414;SDS011;8825;48.086;16.426;2023-12-04T07:52:42;245.57;;;233.65;;
17414;SDS011;8825;48.086;16.426;2023-12-04T07:55:09;300.98;;;286.12;;
17414;SDS011;8825;48.086;16.426;2023-12-04T07:57:37;262.77;;;249.45;;
17414;SDS011;8825;48.086;16.426;2023-12-04T08:00:05;244.35;;;232.22;;
17414;SDS011;8825;48.086;16.426;2023-12-04T08:02:33;270.60;;;256.98;;
17414;SDS011;8825;48.086;16.426;2023-12-04T08:05:01;235.70;;;223.65;;
17414;SDS011;8825;48.086;16.426;2023-12-04T08:07:28;362.60;;;342.82;;
17414;SDS011;8825;48.086;16.426;2023-12-04T08:09:56;280.32;;;265.43;;
17414;SDS011;8825;48.086;16.426;2023-12-04T08:12:23;237.30;;;225.87;;
17414;SDS011;8825;48.086;16.426;2023-12-04T08:14:51;238.87;;;226.52;;
17414;SDS011;8825;48.086;16.426;2023-12-04T08:17:18;160.35;;;152.38;;
17414;SDS011;8825;48.086;16.426;2023-12-04T08:19:46;154.50;;;146.95;;
17414;SDS011;8825;48.086;16.426;2023-12-04T08:22:13;176.72;;;168.32;;
17414;SDS011;8825;48.086;16.426;2023-12-04T08:24:41;187.60;;;179.00;;
17414;SDS011;8825;48.086;16.426;2023-12-04T08:27:08;185.40;;;176.55;;
17414;SDS011;8825;48.086;16.426;2023-12-04T08:29:36;156.95;;;149.15;;
17414;SDS011;8825;48.086;16.426;2023-12-04T08:32:06;142.65;;;135.72;;
17414;SDS011;8825;48.086;16.426;2023-12-04T08:34:33;136.60;;;129.87;;
17414;SDS011;8825;48.086;16.426;2023-12-04T08:37:01;151.12;;;143.87;;
17414;SDS011;8825;48.086;16.426;2023-12-04T08:39:29;190.35;;;182.15;;
17414;SDS011;8825;48.086;16.426;2023-12-04T08:41:56;187.60;;;178.18;;
17414;SDS011;8825;48.086;16.426;2023-12-04T08:44:24;196.93;;;187.60;;
17414;SDS011;8825;48.086;16.426;2023-12-04T08:46:51;200.87;;;191.05;;
17414;SDS011;8825;48.086;16.426;2023-12-04T08:49:19;140.85;;;133.78;;
17414;SDS011;8825;48.086;16.426;2023-12-04T08:51:46;229.43;;;218.02;;
17414;SDS011;8825;48.086;16.426;2023-12-04T08:54:14;209.00;;;199.00;;
17414;SDS011;8825;48.086;16.426;2023-12-04T08:56:41;144.60;;;137.55;;
17414;SDS011;8825;48.086;16.426;2023-12-04T08:59:10;179.63;;;171.07;;
17414;SDS011;8825;48.086;16.426;2023-12-04T09:01:38;125.15;;;118.57;;
17414;SDS011;8825;48.086;16.426;2023-12-04T09:04:07;93.58;;;88.47;;
17414;SDS011;8825;48.086;16.426;2023-12-04T09:06:35;82.92;;;78.22;;
17414;SDS011;8825;48.086;16.426;2023-12-04T09:09:04;104.87;;;99.25;;
17414;SDS011;8825;48.086;16.426;2023-12-04T09:11:32;59.67;;;56.20;;
17414;SDS011;8825;48.086;16.426;2023-12-04T09:13:59;56.28;;;52.85;;
17414;SDS011;8825;48.086;16.426;2023-12-04T09:16:27;52.62;;;49.58;;
17414;SDS011;8825;48.086;16.426;2023-12-04T09:18:54;70.60;;;66.42;;
17414;SDS011;8825;48.086;16.426;2023-12-04T09:21:22;89.15;;;84.15;;
17414;SDS011;8825;48.086;16.426;2023-12-04T09:23:50;74.45;;;70.47;;
17414;SDS011;8825;48.086;16.426;2023-12-04T09:26:18;80.45;;;76.10;;
17414;SDS011;8825;48.086;16.426;2023-12-04T09:28:45;93.27;;;88.27;;
17414;SDS011;8825;48.086;16.426;2023-12-04T09:31:13;116.35;;;110.45;;
17414;SDS011;8825;48.086;16.426;2023-12-04T09:33:41;101.78;;;96.22;;
17414;SDS011;8825;48.086;16.426;2023-12-04T09:36:09;79.37;;;74.90;;
17414;SDS011;8825;48.086;16.426;2023-12-04T09:38:37;54.33;;;51.13;;
17414;SDS011;8825;48.086;16.426;2023-12-04T09:41:04;56.02;;;52.38;;
17414;SDS011;8825;48.086;16.426;2023-12-04T09:43:35;57.27;;;53.87;;
17414;SDS011;8825;48.086;16.426;2023-12-04T09:46:03;75.37;;;71.45;;
17414;SDS011;8825;48.086;16.426;2023-12-04T09:48:31;68.12;;;64.25;;
17414;SDS011;8825;48.086;16.426;2023-12-04T09:50:59;89.60;;;85.03;;
17414;SDS011;8825;48.086;16.426;2023-12-04T09:53:28;126.12;;;119.50;;
17414;SDS011;8825;48.086;16.426;2023-12-04T09:55:59;115.15;;;109.57;;
17414;SDS011;8825;48.086;16.426;2023-12-04T09:58:28;124.02;;;117.97;;
17414;SDS011;8825;48.086;16.426;2023-12-04T10:01:03;135.82;;;129.00;;
17414;SDS011;8825;48.086;16.426;2023-12-04T10:03:27;122.30;;;116.10;;
17414;SDS011;8825;48.086;16.426;2023-12-04T10:05:55;143.82;;;136.80;;
17414;SDS011;8825;48.086;16.426;2023-12-04T10:08:23;137.40;;;130.57;;
17414;SDS011;8825;48.086;16.426;2023-12-04T10:10:51;136.37;;;128.90;;
17414;SDS011;8825;48.086;16.426;2023-12-04T10:13:18;134.37;;;127.75;;
17414;SDS011;8825;48.086;16.426;2023-12-04T10:15:46;144.13;;;136.85;;
17414;SDS011;8825;48.086;16.426;2023-12-04T10:18:25;136.43;;;129.78;;
17414;SDS011;8825;48.086;16.426;2023-12-04T10:20:56;152.40;;;144.20;;
17414;SDS011;8825;48.086;16.426;2023-12-04T10:23:41;130.63;;;123.95;;
17414;SDS011;8825;48.086;16.426;2023-12-04T10:26:09;136.87;;;130.10;;
17414;SDS011;8825;48.086;16.426;2023-12-04T10:28:41;124.85;;;118.28;;
17414;SDS011;8825;48.086;16.426;2023-12-04T10:31:32;117.22;;;111.10;;
17414;SDS011;8825;48.086;16.426;2023-12-04T10:34:04;197.40;;;188.42;;
17414;SDS011;8825;48.086;16.426;2023-12-04T10:36:31;151.53;;;143.45;;
17414;SDS011;8825;48.086;16.426;2023-12-04T10:38:59;160.35;;;152.80;;
17414;SDS011;8825;48.086;16.426;2023-12-04T10:41:29;141.60;;;134.87;;
17414;SDS011;8825;48.086;16.426;2023-12-04T10:43:57;122.30;;;115.77;;
17414;SDS011;8825;48.086;16.426;2023-12-04T10:46:27;130.43;;;123.82;;
17414;SDS011;8825;48.086;16.426;2023-12-04T10:48:55;124.45;;;118.05;;
17414;SDS011;8825;48.086;16.426;2023-12-04T10:51:24;97.02;;;91.67;;
17414;SDS011;8825;48.086;16.426;2023-12-04T10:53:53;113.75;;;107.75;;
17414;SDS011;8825;48.086;16.426;2023-12-04T10:56:30;108.92;;;103.32;;
17414;SDS011;8825;48.086;16.426;2023-12-04T10:58:58;107.17;;;101.12;;
17414;SDS011;8825;48.086;16.426;2023-12-04T11:01:30;139.00;;;132.22;;
17414;SDS011;8825;48.086;16.426;2023-12-04T11:03:59;71.75;;;67.53;;
17414;SDS011;8825;48.086;16.426;2023-12-04T11:06:30;83.05;;;78.97;;
17414;SDS011;8825;48.086;16.426;2023-12-04T11:08:58;88.12;;;83.85;;
17414;SDS011;8825;48.086;16.426;2023-12-04T11:11:30;83.97;;;80.00;;
17414;SDS011;8825;48.086;16.426;2023-12-04T11:14:00;92.20;;;87.92;;
17414;SDS011;8825;48.086;16.426;2023-12-04T11:16:38;88.67;;;84.40;;
17414;SDS011;8825;48.086;16.426;2023-12-04T11:19:14;75.37;;;71.77;;
17414;SDS011;8825;48.086;16.426;2023-12-04T11:21:57;79.20;;;75.45;;
17414;SDS011;8825;48.086;16.426;2023-12-04T11:24:25;75.78;;;72.05;;
17414;SDS011;8825;48.086;16.426;2023-12-04T11:26:53;92.60;;;88.27;;
17414;SDS011;8825;48.086;16.426;2023-12-04T11:29:22;73.17;;;69.75;;
17414;SDS011;8825;48.086;16.426;2023-12-04T11:31:51;87.20;;;83.12;;
17414;SDS011;8825;48.086;16.426;2023-12-04T11:34:18;85.28;;;81.32;;
17414;SDS011;8825;48.086;16.426;2023-12-04T11:36:46;88.37;;;84.30;;
17414;SDS011;8825;48.086;16.426;2023-12-04T11:39:13;96.47;;;92.02;;
17414;SDS011;8825;48.086;16.426;2023-12-04T11:41:41;101.72;;;97.02;;
17414;SDS011;8825;48.086;16.426;2023-12-04T11:44:12;99.90;;;95.07;;
17414;SDS011;8825;48.086;16.426;2023-12-04T11:49:32;101.22;;;96.30;;
17414;SDS011;8825;48.086;16.426;2023-12-04T11:52:06;102.95;;;97.75;;
17414;SDS011;8825;48.086;16.426;2023-12-04T11:54:55;107.22;;;102.07;;
17414;SDS011;8825;48.086;16.426;2023-12-04T11:59:48;108.52;;;103.47;;
17414;SDS011;8825;48.086;16.426;2023-12-04T12:02:15;105.32;;;100.27;;
17414;SDS011;8825;48.086;16.426;2023-12-04T12:04:43;138.25;;;131.85;;
17414;SDS011;8825;48.086;16.426;2023-12-04T12:07:13;114.85;;;109.07;;
17414;SDS011;8825;48.086;16.426;2023-12-04T12:09:41;109.85;;;104.20;;
17414;SDS011;8825;48.086;16.426;2023-12-04T12:12:09;110.63;;;105.03;;
17414;SDS011;8825;48.086;16.426;2023-12-04T12:14:37;108.60;;;103.15;;
17414;SDS011;8825;48.086;16.426;2023-12-04T12:17:05;105.12;;;99.67;;
17414;SDS011;8825;48.086;16.426;2023-12-04T12:19:33;95.25;;;90.12;;
17414;SDS011;8825;48.086;16.426;2023-12-04T12:22:00;77.35;;;73.22;;
17414;SDS011;8825;48.086;16.426;2023-12-04T12:24:28;75.42;;;71.25;;
17414;SDS011;8825;48.086;16.426;2023-12-04T12:26:56;67.72;;;64.03;;
17414;SDS011;8825;48.086;16.426;2023-12-04T12:29:24;70.17;;;66.30;;
17414;SDS011;8825;48.086;16.426;2023-12-04T12:31:51;72.90;;;69.00;;
17414;SDS011;8825;48.086;16.426;2023-12-04T12:34:19;76.95;;;72.70;;
17414;SDS011;8825;48.086;16.426;2023-12-04T12:36:46;74.50;;;70.30;;
17414;SDS011;8825;48.086;16.426;2023-12-04T12:39:14;90.60;;;85.72;;
17414;SDS011;8825;48.086;16.426;2023-12-04T12:41:48;89.32;;;84.62;;
17414;SDS011;8825;48.086;16.426;2023-12-04T12:44:16;108.80;;;103.02;;
17414;SDS011;8825;48.086;16.426;2023-12-04T12:46:47;78.20;;;73.78;;
17414;SDS011;8825;48.086;16.426;2023-12-04T12:49:18;81.70;;;77.12;;
17414;SDS011;8825;48.086;16.426;2023-12-04T12:51:49;58.48;;;54.98;;
17414;SDS011;8825;48.086;16.426;2023-12-04T12:54:16;66.82;;;62.88;;
17414;SDS011;8825;48.086;16.426;2023-12-04T12:56:45;71.77;;;67.85;;
17414;SDS011;8825;48.086;16.426;2023-12-04T12:59:13;67.80;;;63.92;;
17414;SDS011;8825;48.086;16.426;2023-12-04T13:01:43;67.47;;;63.63;;
17414;SDS011;8825;48.086;16.426;2023-12-04T13:04:13;52.53;;;49.50;;
17414;SDS011;8825;48.086;16.426;2023-12-04T13:06:44;59.83;;;56.28;;
17414;SDS011;8825;48.086;16.426;2023-12-04T13:09:11;106.05;;;100.90;;
17414;SDS011;8825;48.086;16.426;2023-12-04T13:11:41;82.53;;;78.12;;
17414;SDS011;8825;48.086;16.426;2023-12-04T13:14:09;71.92;;;67.90;;
17414;SDS011;8825;48.086;16.426;2023-12-04T13:16:36;57.75;;;54.42;;
17414;SDS011;8825;48.086;16.426;2023-12-04T13:19:04;60.92;;;57.53;;
17414;SDS011;8825;48.086;16.426;2023-12-04T13:21:31;60.03;;;56.70;;
17414;SDS011;8825;48.086;16.426;2023-12-04T13:23:59;63.87;;;60.23;;
17414;SDS011;8825;48.086;16.426;2023-12-04T13:26:26;66.95;;;63.30;;
17414;SDS011;8825;48.086;16.426;2023-12-04T13:28:54;108.45;;;103.38;;
17414;SDS011;8825;48.086;16.426;2023-12-04T13:31:21;72.60;;;68.75;;
17414;SDS011;8825;48.086;16.426;2023-12-04T13:33:49;87.50;;;82.78;;
17414;SDS011;8825;48.086;16.426;2023-12-04T13:36:16;91.15;;;86.37;;
17414;SDS011;8825;48.086;16.426;2023-12-04T13:38:44;60.52;;;56.95;;
17414;SDS011;8825;48.086;16.426;2023-12-04T13:41:12;87.17;;;82.55;;
17414;SDS011;8825;48.086;16.426;2023-12-04T13:43:47;93.45;;;88.52;;
17414;SDS011;8825;48.086;16.426;2023-12-04T13:46:16;87.55;;;82.80;;
17414;SDS011;8825;48.086;16.426;2023-12-04T13:48:44;81.95;;;77.65;;
17414;SDS011;8825;48.086;16.426;2023-12-04T13:51:12;85.90;;;81.53;;
17414;SDS011;8825;48.086;16.426;2023-12-04T13:53:40;52.73;;;49.67;;
17414;SDS011;8825;48.086;16.426;2023-12-04T13:56:13;76.17;;;72.17;;
17414;SDS011;8825;48.086;16.426;2023-12-04T13:58:51;70.15;;;65.70;;
17414;SDS011;8825;48.086;16.426;2023-12-04T14:01:27;58.33;;;55.12;;
17414;SDS011;8825;48.086;16.426;2023-12-04T14:03:54;58.33;;;55.17;;
17414;SDS011;8825;48.086;16.426;2023-12-04T14:06:24;44.35;;;41.60;;
17414;SDS011;8825;48.086;16.426;2023-12-04T14:08:51;67.82;;;64.30;;
17414;SDS011;8825;48.086;16.426;2023-12-04T14:11:19;76.70;;;72.65;;
17414;SDS011;8825;48.086;16.426;2023-12-04T14:13:46;74.03;;;70.30;;
17414;SDS011;8825;48.086;16.426;2023-12-04T14:16:14;73.80;;;70.00;;